• Join FlightAware (Why Join?)
  • Login
  • US Flag 
07:12PM EDT


 

Airport Tracker/Info


-or-


 

Live Flight TrackerFlight Track Log ✈ SKW6446 ✈ 24-Apr-2013 ✈ KLAX - KSMX

Flight Track Log - Related Links

Times and Time Zones

All times are in EDT time to prevent confusion due to time zone crossing. See the SKW6446 flight status page for this flight to view local times or setup timezone preferences in your user account.

Time Position Orientation Groundspeed Altitude Reporting Facility
EDT Latitude Longitude Course Direction KTS MPH feet Rate Location/Type
08:05PM 34.2615 -119.3229 301° West  Level FlightAware Approximate
08:06PM 34.2908 -119.3815 301° West  Level FlightAware Approximate
08:07PM 34.3201 -119.4401 301° West  Level FlightAware Approximate
08:08PM 34.3494 -119.4987 301° West  Level FlightAware Approximate
08:09PM 34.3848 -119.5521 309° West  Level FlightAware Approximate
08:10PM 34.4237 -119.6105 309° West  Level FlightAware Approximate
08:11PM 34.4533 -119.6732 301° West  Level FlightAware Approximate
08:12PM 34.4854 -119.7374 301° West  Level FlightAware Approximate
08:13PM 34.5175 -119.8016 301° West  Level FlightAware Approximate
08:14PM 34.5496 -119.8658 301° West  Level FlightAware Approximate
08:15PM 34.5817 -119.9301 301° West  Level FlightAware Approximate
08:16PM 34.6138 -119.9943 301° West  Level FlightAware Approximate
08:17PM 34.6460 -120.0586 301° West  Level FlightAware Approximate
08:18PM 34.6782 -120.1229 301° West  Level FlightAware Approximate
08:19PM 34.7103 -120.1872 301° West  Level FlightAware Approximate
08:20PM 34.7333 -120.2547 270° West  Level FlightAware Approximate
08:21PM 34.7723 -120.3001 309° West  Level FlightAware Approximate
08:22PM 34.8133 -120.3566 312° West  Level FlightAware Approximate
08:23PM 34.8550 -120.4123 312° West  Level FlightAware Approximate
08:24PM 34.8833 -120.4500 312° West  Level FlightAware Approximate
08:25PM 34.8999 -120.4581 312° West  Level Estimated
08:26PM 34.8999 -120.4581 312° West  Level Estimated
08:27PM 34.8999 -120.4581 312° West  Level Estimated
08:28PM 34.8999 -120.4581 312° West  Level Estimated
08:29PM 34.8999 -120.4581 312° West  Level Estimated
08:30PM 34.8999 -120.4581 312° West  Level Estimated
08:31PM 34.8999 -120.4581 312° West  Level Estimated
08:32PM 34.8999 -120.4581 312° West  Level Estimated
08:33PM 34.8999 -120.4581 312° West  Level Estimated
08:34PM 34.8999 -120.4581 312° West  Level Estimated
08:35PM 34.8999 -120.4581 312° West  Level Estimated
08:36PM 34.8999 -120.4581 312° West  Level Estimated
08:37PM 34.8999 -120.4581 312° West  Level Estimated
08:38PM 34.8999 -120.4581 312° West  Level Estimated